| time (UTC) | temp F | wind direction | speed MPH | gust MPH | rain 1hr in | rain 24hr in | rain mn in | humidity % | barometer mb |
| 20260509093001 | 60 | 71 | 0.0 | 2.0 | 0.00 | 0.00 | 0.00 | 88 | 1013.4 |
| 20260509091600 | 60 | 71 | 0.0 | 1.0 | 0.00 | 0.00 | 0.00 | 88 | 1013.6 |
| 20260509090107 | 60 | 51 | 0.0 | 5.0 | 0.00 | 0.00 | 0.00 | 88 | 1013.6 |
| 20260509084601 | 60 | 99 | 1.0 | 6.0 | 0.00 | 0.00 | 0.00 | 88 | 1013.8 |
| 20260509083055 | 60 | 103 | 1.0 | 4.0 | 0.00 | 0.00 | 0.00 | 88 | 1013.8 |
| 20260509081552 | 60 | 139 | 2.0 | 5.0 | 0.00 | 0.00 | 0.00 | 87 | 1013.8 |
| 20260509080056 | 59 | 78 | 0.0 | 2.0 | 0.00 | 0.00 | 0.00 | 87 | 1014.0 |
| 20260509074547 | 59 | 144 | 0.0 | 1.0 | 0.00 | 0.00 | 0.00 | 86 | 1014.1 |
| 20260509073052 | 59 | 144 | 0.0 | 0.0 | 0.00 | 0.00 | 0.00 | 85 | 1014.1 |
| 20260509071550 | 59 | 144 | 0.0 | 0.0 | 0.00 | 0.00 | 0.00 | 84 | 1014.4 |
| 20260509070041 | 59 | 144 | 0.0 | 0.0 | 0.00 | 0.00 | 0.00 | 84 | 1014.4 |
| 20260509064539 | 60 | 144 | 0.0 | 0.0 | 0.00 | 0.00 | 0.00 | 84 | 1014.4 |
| 20260509063040 | 60 | 144 | 0.0 | 0.0 | 0.00 | 0.00 | 0.00 | 84 | 1014.5 |
| 20260509061546 | 61 | 144 | 0.0 | 0.0 | 0.00 | 0.00 | 0.00 | 83 | 1014.6 |
| 20260509060038 | 61 | 144 | 0.0 | 4.0 | 0.00 | 0.00 | 0.00 | 83 | 1014.5 |
| 20260509054542 | 62 | 205 | 0.0 | 5.0 | 0.00 | 0.00 | 0.00 | 83 | 1014.5 |
| 20260509053037 | 62 | 201 | 0.0 | 4.0 | 0.00 | 0.00 | 0.00 | 83 | 1014.6 |
| 20260509051537 | 63 | 190 | 0.0 | 5.0 | 0.00 | 0.00 | 0.00 | 82 | 1014.7 |
| 20260509050047 | 63 | 207 | 0.0 | 2.0 | 0.00 | 0.00 | 0.00 | 81 | 1014.7 |
| 20260509044543 | 64 | 212 | 0.0 | 2.0 | 0.00 | 0.00 | 0.00 | 80 | 1014.6 |
| 20260509043033 | 64 | 192 | 0.0 | 4.0 | 0.00 | 0.00 | 0.00 | 79 | 1014.7 |
| 20260509041533 | 65 | 186 | 1.0 | 5.0 | 0.00 | 0.00 | 0.00 | 78 | 1014.6 |
| 20260509040037 | 66 | 188 | 1.0 | 5.0 | 0.00 | 0.00 | 0.00 | 76 | 1014.4 |
| 20260509034534 | 67 | 230 | 1.0 | 7.0 | 0.00 | 0.00 | 0.00 | 75 | 1014.2 |
| 20260509033031 | 67 | 160 | 2.0 | 6.0 | 0.00 | 0.00 | 0.00 | 73 | 1014.0 |
| 20260509031533 | 68 | 164 | 2.0 | 5.0 | 0.00 | 0.00 | 0.00 | 71 | 1014.0 |
| 20260509030033 | 69 | 195 | 5.0 | 7.0 | 0.00 | 0.00 | 0.00 | 69 | 1013.6 |
| 20260509024529 | 70 | 171 | 1.0 | 6.0 | 0.00 | 0.00 | 0.00 | 67 | 1013.5 |
| 20260509023031 | 71 | 153 | 0.0 | 5.0 | 0.00 | 0.00 | 0.00 | 65 | 1013.3 |
| 20260509021528 | 72 | 238 | 3.0 | 6.0 | 0.00 | 0.00 | 0.00 | 64 | 1013.2 |
| 20260509020027 | 73 | 203 | 1.0 | 7.0 | 0.00 | 0.00 | 0.00 | 63 | 1013.1 |
| 20260509014528 | 74 | 202 | 3.0 | 7.0 | 0.00 | 0.00 | 0.00 | 62 | 1013.0 |
| 20260509013037 | 75 | 235 | 4.0 | 7.0 | 0.00 | 0.00 | 0.00 | 60 | 1013.1 |
| 20260509011525 | 76 | 218 | 3.0 | 9.0 | 0.00 | 0.00 | 0.00 | 58 | 1013.0 |
| 20260509010024 | 77 | 262 | 3.0 | 8.0 | 0.00 | 0.00 | 0.00 | 57 | 1013.0 |
| 20260509004525 | 77 | 245 | 5.0 | 9.0 | 0.00 | 0.00 | 0.00 | 55 | 1013.0 |
| 20260509003022 | 78 | 215 | 3.0 | 12.0 | 0.00 | 0.00 | 0.00 | 55 | 1013.1 |
| 20260509001521 | 79 | 246 | 4.0 | 9.0 | 0.00 | 0.00 | 0.00 | 54 | 1013.1 |
| 20260509000020 | 80 | 218 | 4.0 | 11.0 | 0.00 | 0.00 | 0.00 | 52 | 1013.1 |
| 20260508234519 | 80 | 224 | 5.0 | 10.0 | 0.00 | 0.00 | 0.00 | 52 | 1013.2 |
| 20260508233017 | 81 | 197 | 4.0 | 9.0 | 0.00 | 0.00 | 0.00 | 51 | 1013.1 |
| 20260508231516 | 82 | 196 | 5.0 | 10.0 | 0.00 | 0.00 | 0.00 | 51 | 1013.1 |
| 20260508230034 | 82 | 184 | 3.0 | 10.0 | 0.00 | 0.00 | 0.00 | 50 | 1013.3 |
| 20260508224539 | 82 | 237 | 3.0 | 9.0 | 0.00 | 0.00 | 0.00 | 50 | 1013.3 |
| 20260508223024 | 83 | 193 | 8.0 | 13.0 | 0.00 | 0.00 | 0.00 | 50 | 1013.2 |
| 20260508221512 | 84 | 174 | 8.0 | 15.0 | 0.00 | 0.00 | 0.00 | 49 | 1013.3 |
| 20260508220012 | 84 | 189 | 8.0 | 19.0 | 0.00 | 0.00 | 0.00 | 48 | 1013.4 |
| 20260508214511 | 86 | 149 | 5.0 | 16.0 | 0.00 | 0.00 | 0.00 | 47 | 1013.4 |
| 20260508213010 | 85 | 173 | 5.0 | 10.0 | 0.00 | 0.00 | 0.00 | 46 | 1013.4 |
| 20260508211512 | 86 | 162 | 6.0 | 12.0 | 0.00 | 0.00 | 0.00 | 45 | 1013.4 |
| 20260508210008 | 86 | 149 | 6.0 | 10.0 | 0.00 | 0.00 | 0.00 | 44 | 1013.5 |
| 20260508204513 | 84 | 90 | 2.0 | 10.0 | 0.00 | 0.00 | 0.00 | 44 | 1013.6 |
| 20260508203001 | 85 | 232 | 1.0 | 9.0 | 0.00 | 0.00 | 0.00 | 45 | 1013.9 |
| 20260508201559 | 82 | 110 | 3.0 | 9.0 | 0.00 | 0.00 | 0.00 | 47 | 1014.0 |
| 20260508200057 | 82 | 110 | 4.0 | 8.0 | 0.00 | 0.00 | 0.00 | 49 | 1014.1 |
| 20260508194553 | 81 | 299 | 1.0 | 7.0 | 0.00 | 0.00 | 0.00 | 49 | 1014.3 |
| 20260508193120 | 78 | 139 | 4.0 | 8.0 | 0.00 | 0.00 | 0.00 | 53 | 1014.4 |
| 20260508191549 | 78 | 135 | 3.0 | 8.0 | 0.00 | 0.00 | 0.00 | 54 | 1014.7 |
| 20260508190043 | 77 | 232 | 2.0 | 8.0 | 0.00 | 0.00 | 0.00 | 56 | 1014.9 |
| 20260508184548 | 77 | 162 | 3.0 | 11.0 | 0.00 | 0.00 | 0.00 | 57 | 1015.0 |
| 20260508183039 | 74 | 159 | 0.0 | 6.0 | 0.00 | 0.00 | 0.00 | 63 | 1015.2 |
| 20260508181532 | 73 | 76 | 4.0 | 7.0 | 0.00 | 0.00 | 0.00 | 64 | 1015.3 |
| 20260508180031 | 72 | 165 | 3.0 | 7.0 | 0.00 | 0.00 | 0.00 | 68 | 1015.4 |
| 20260508174535 | 70 | 242 | 2.0 | 5.0 | 0.00 | 0.00 | 0.00 | 70 | 1015.6 |
| 20260508173023 | 69 | 122 | 4.0 | 7.0 | 0.00 | 0.00 | 0.00 | 71 | 1015.7 |
| 20260508171521 | 68 | 218 | 1.0 | 6.0 | 0.00 | 0.00 | 0.00 | 75 | 1015.6 |
| 20260508170020 | 67 | 248 | 3.0 | 7.0 | 0.00 | 0.00 | 0.00 | 75 | 1015.7 |
| 20260508164523 | 65 | 207 | 1.0 | 5.0 | 0.00 | 0.00 | 0.00 | 81 | 1015.9 |
| 20260508163011 | 63 | 28 | 0.0 | 4.0 | 0.00 | 0.00 | 0.00 | 84 | 1016.0 |
| 20260508161507 | 62 | 37 | 2.0 | 5.0 | 0.00 | 0.00 | 0.00 | 87 | 1016.1 |
| 20260508160004 | 61 | 61 | 2.0 | 5.0 | 0.00 | 0.00 | 0.00 | 87 | 1016.2 |
| 20260508154604 | 61 | 358 | 2.0 | 6.0 | 0.00 | 0.00 | 0.00 | 88 | 1016.3 |
| 20260508153059 | 61 | 359 | 0.0 | 2.0 | 0.00 | 0.00 | 0.00 | 88 | 1016.3 |
| 20260508151557 | 61 | 232 | 0.0 | 2.0 | 0.00 | 0.00 | 0.00 | 88 | 1016.3 |
| 20260508150052 | 60 | 231 | 0.0 | 5.0 | 0.00 | 0.00 | 0.00 | 88 | 1016.3 |
| 20260508144549 | 60 | 258 | 0.0 | 2.0 | 0.00 | 0.00 | 0.00 | 88 | 1016.3 |
| 20260508143045 | 60 | 251 | 0.0 | 4.0 | 0.00 | 0.00 | 0.00 | 88 | 1016.1 |
| 20260508141544 | 60 | 218 | 0.0 | 2.0 | 0.00 | 0.00 | 0.00 | 89 | 1015.9 |
| 20260508140044 | 60 | 290 | 0.0 | 0.0 | 0.00 | 0.00 | 0.00 | 89 | 1015.9 |
| 20260508134541 | 60 | 61 | 0.0 | 4.0 | 0.00 | 0.00 | 0.00 | 89 | 1015.7 |
| 20260508133059 | 60 | 109 | 0.0 | 2.0 | 0.00 | 0.00 | 0.00 | 89 | 1015.6 |
| 20260508131538 | 60 | 203 | 0.0 | 0.0 | 0.00 | 0.00 | 0.00 | 88 | 1015.6 |
| 20260508130037 | 60 | 95 | 0.0 | 4.0 | 0.00 | 0.00 | 0.00 | 88 | 1015.6 |
| 20260508124537 | 60 | 134 | 0.0 | 2.0 | 0.00 | 0.00 | 0.00 | 88 | 1015.4 |
| 20260508123039 | 60 | 134 | 0.0 | 0.0 | 0.00 | 0.00 | 0.00 | 88 | 1015.4 |
| 20260508121536 | 60 | 134 | 0.0 | 0.0 | 0.00 | 0.00 | 0.00 | 88 | 1015.4 |
| 20260508120034 | 60 | 111 | 0.0 | 2.0 | 0.00 | 0.00 | 0.00 | 88 | 1015.4 |
| 20260508114533 | 60 | 91 | 0.0 | 3.0 | 0.00 | 0.00 | 0.00 | 88 | 1015.4 |
| 20260508113036 | 60 | 157 | 2.0 | 5.0 | 0.00 | 0.00 | 0.00 | 88 | 1015.4 |
| 20260508111531 | 60 | 117 | 1.0 | 6.0 | 0.00 | 0.00 | 0.00 | 87 | 1015.4 |
| 20260508110032 | 60 | 95 | 1.0 | 5.0 | 0.00 | 0.00 | 0.00 | 87 | 1015.4 |
| 20260508104528 | 60 | 111 | 1.0 | 5.0 | 0.00 | 0.00 | 0.00 | 87 | 1015.5 |
| 20260508103028 | 60 | 119 | 1.0 | 4.0 | 0.00 | 0.00 | 0.00 | 87 | 1015.7 |
| 20260508101527 | 60 | 139 | 1.0 | 5.0 | 0.00 | 0.00 | 0.00 | 87 | 1015.7 |
| 20260508100028 | 60 | 163 | 2.0 | 5.0 | 0.00 | 0.00 | 0.00 | 87 | 1015.6 |
| 20260508094526 | 60 | 111 | 1.0 | 6.0 | 0.00 | 0.00 | 0.00 | 87 | 1015.6 |